sensor_id;sensor_type;location;lat;lon;timestamp;P1;durP1;ratioP1;P2;durP2;ratioP2
57105;SDS011;62662;56.788;23.942;2022-09-17T00:01:00;4.63;;;1.85;;
57105;SDS011;62662;56.788;23.942;2022-09-17T00:03:28;5.72;;;2.00;;
57105;SDS011;62662;56.788;23.942;2022-09-17T00:06:05;4.28;;;1.50;;
57105;SDS011;62662;56.788;23.942;2022-09-17T00:08:34;4.50;;;1.85;;
57105;SDS011;62662;56.788;23.942;2022-09-17T00:11:07;5.43;;;1.90;;
57105;SDS011;62662;56.788;23.942;2022-09-17T00:13:35;4.68;;;1.85;;
57105;SDS011;62662;56.788;23.942;2022-09-17T00:16:02;4.07;;;2.30;;
57105;SDS011;62662;56.788;23.942;2022-09-17T00:18:30;7.28;;;2.28;;
57105;SDS011;62662;56.788;23.942;2022-09-17T00:20:57;6.28;;;2.50;;
57105;SDS011;62662;56.788;23.942;2022-09-17T00:23:24;7.70;;;2.22;;
57105;SDS011;62662;56.788;23.942;2022-09-17T00:25:51;5.32;;;2.22;;
57105;SDS011;62662;56.788;23.942;2022-09-17T00:28:18;6.75;;;2.22;;
57105;SDS011;62662;56.788;23.942;2022-09-17T00:30:45;6.35;;;2.72;;
57105;SDS011;62662;56.788;23.942;2022-09-17T00:33:12;4.07;;;1.92;;
57105;SDS011;62662;56.788;23.942;2022-09-17T00:35:41;4.85;;;2.67;;
57105;SDS011;62662;56.788;23.942;2022-09-17T00:38:09;4.55;;;2.70;;
57105;SDS011;62662;56.788;23.942;2022-09-17T00:40:37;4.90;;;2.75;;
57105;SDS011;62662;56.788;23.942;2022-09-17T00:43:05;4.50;;;2.97;;
57105;SDS011;62662;56.788;23.942;2022-09-17T00:45:37;4.53;;;2.40;;
57105;SDS011;62662;56.788;23.942;2022-09-17T00:48:05;5.60;;;2.92;;
57105;SDS011;62662;56.788;23.942;2022-09-17T00:50:34;4.50;;;2.38;;
57105;SDS011;62662;56.788;23.942;2022-09-17T00:55:47;4.22;;;2.35;;
57105;SDS011;62662;56.788;23.942;2022-09-17T00:58:19;3.25;;;2.05;;
57105;SDS011;62662;56.788;23.942;2022-09-17T01:00:48;4.60;;;2.47;;
57105;SDS011;62662;56.788;23.942;2022-09-17T01:03:14;6.63;;;2.30;;
57105;SDS011;62662;56.788;23.942;2022-09-17T01:14:46;2.88;;;2.15;;
57105;SDS011;62662;56.788;23.942;2022-09-17T01:28:40;3.20;;;2.33;;
57105;SDS011;62662;56.788;23.942;2022-09-17T01:37:29;3.90;;;2.58;;
57105;SDS011;62662;56.788;23.942;2022-09-17T01:40:09;6.70;;;2.30;;
57105;SDS011;62662;56.788;23.942;2022-09-17T01:42:53;5.43;;;2.45;;
57105;SDS011;62662;56.788;23.942;2022-09-17T01:48:23;4.75;;;3.25;;
57105;SDS011;62662;56.788;23.942;2022-09-17T01:50:56;8.52;;;3.10;;
57105;SDS011;62662;56.788;23.942;2022-09-17T01:53:40;5.82;;;3.13;;
57105;SDS011;62662;56.788;23.942;2022-09-17T01:56:20;5.60;;;3.05;;
57105;SDS011;62662;56.788;23.942;2022-09-17T01:58:51;5.00;;;3.10;;
57105;SDS011;62662;56.788;23.942;2022-09-17T02:01:26;5.82;;;3.40;;
57105;SDS011;62662;56.788;23.942;2022-09-17T02:04:02;4.82;;;3.33;;
57105;SDS011;62662;56.788;23.942;2022-09-17T02:06:37;5.45;;;2.90;;
57105;SDS011;62662;56.788;23.942;2022-09-17T02:11:40;5.90;;;2.95;;
57105;SDS011;62662;56.788;23.942;2022-09-17T02:14:12;4.70;;;2.78;;
57105;SDS011;62662;56.788;23.942;2022-09-17T02:16:46;3.80;;;2.78;;
57105;SDS011;62662;56.788;23.942;2022-09-17T02:19:25;5.28;;;2.53;;
57105;SDS011;62662;56.788;23.942;2022-09-17T02:24:52;5.82;;;2.80;;
57105;SDS011;62662;56.788;23.942;2022-09-17T02:27:31;3.53;;;2.30;;
57105;SDS011;62662;56.788;23.942;2022-09-17T02:30:19;6.95;;;2.45;;
57105;SDS011;62662;56.788;23.942;2022-09-17T02:32:46;5.25;;;2.13;;
57105;SDS011;62662;56.788;23.942;2022-09-17T02:35:13;3.95;;;2.40;;
57105;SDS011;62662;56.788;23.942;2022-09-17T02:37:41;3.40;;;2.22;;
57105;SDS011;62662;56.788;23.942;2022-09-17T02:40:09;3.88;;;2.40;;
57105;SDS011;62662;56.788;23.942;2022-09-17T02:42:50;5.10;;;2.50;;
57105;SDS011;62662;56.788;23.942;2022-09-17T03:03:57;3.13;;;1.95;;
57105;SDS011;62662;56.788;23.942;2022-09-17T03:06:27;3.10;;;2.00;;
57105;SDS011;62662;56.788;23.942;2022-09-17T03:08:55;4.35;;;2.17;;
57105;SDS011;62662;56.788;23.942;2022-09-17T03:11:22;4.60;;;2.95;;
57105;SDS011;62662;56.788;23.942;2022-09-17T03:13:50;8.23;;;4.07;;
57105;SDS011;62662;56.788;23.942;2022-09-17T03:16:17;5.28;;;3.25;;
57105;SDS011;62662;56.788;23.942;2022-09-17T03:18:44;5.40;;;4.13;;
57105;SDS011;62662;56.788;23.942;2022-09-17T03:21:11;4.80;;;4.30;;
57105;SDS011;62662;56.788;23.942;2022-09-17T03:23:38;5.65;;;4.60;;
57105;SDS011;62662;56.788;23.942;2022-09-17T03:26:05;5.20;;;4.10;;
57105;SDS011;62662;56.788;23.942;2022-09-17T03:28:32;5.30;;;4.63;;
57105;SDS011;62662;56.788;23.942;2022-09-17T03:30:59;5.75;;;4.22;;
57105;SDS011;62662;56.788;23.942;2022-09-17T03:33:27;8.27;;;4.00;;
57105;SDS011;62662;56.788;23.942;2022-09-17T03:35:54;9.32;;;4.28;;
57105;SDS011;62662;56.788;23.942;2022-09-17T03:38:20;6.60;;;4.40;;
57105;SDS011;62662;56.788;23.942;2022-09-17T03:41:03;6.40;;;4.57;;
57105;SDS011;62662;56.788;23.942;2022-09-17T03:43:32;7.30;;;4.35;;
57105;SDS011;62662;56.788;23.942;2022-09-17T03:45:59;6.20;;;4.05;;
57105;SDS011;62662;56.788;23.942;2022-09-17T03:48:26;5.72;;;4.60;;
57105;SDS011;62662;56.788;23.942;2022-09-17T03:50:54;9.35;;;5.85;;
57105;SDS011;62662;56.788;23.942;2022-09-17T03:53:22;8.13;;;6.03;;
57105;SDS011;62662;56.788;23.942;2022-09-17T03:55:49;8.40;;;5.10;;
57105;SDS011;62662;56.788;23.942;2022-09-17T03:58:16;9.73;;;5.55;;
57105;SDS011;62662;56.788;23.942;2022-09-17T04:00:43;9.07;;;5.20;;
57105;SDS011;62662;56.788;23.942;2022-09-17T04:03:10;7.70;;;5.55;;
57105;SDS011;62662;56.788;23.942;2022-09-17T04:05:36;11.77;;;6.13;;
57105;SDS011;62662;56.788;23.942;2022-09-17T04:08:03;8.40;;;5.78;;
57105;SDS011;62662;56.788;23.942;2022-09-17T04:10:30;10.13;;;4.80;;
57105;SDS011;62662;56.788;23.942;2022-09-17T04:12:57;7.60;;;5.40;;
57105;SDS011;62662;56.788;23.942;2022-09-17T04:15:24;7.45;;;5.00;;
57105;SDS011;62662;56.788;23.942;2022-09-17T04:17:55;4.82;;;3.90;;
57105;SDS011;62662;56.788;23.942;2022-09-17T04:20:25;7.03;;;5.10;;
57105;SDS011;62662;56.788;23.942;2022-09-17T04:22:53;7.60;;;5.47;;
57105;SDS011;62662;56.788;23.942;2022-09-17T04:25:19;6.35;;;4.97;;
57105;SDS011;62662;56.788;23.942;2022-09-17T04:27:46;7.38;;;5.10;;
57105;SDS011;62662;56.788;23.942;2022-09-17T04:30:13;11.43;;;5.70;;
57105;SDS011;62662;56.788;23.942;2022-09-17T04:32:41;8.70;;;5.35;;
57105;SDS011;62662;56.788;23.942;2022-09-17T04:35:12;8.32;;;5.43;;
57105;SDS011;62662;56.788;23.942;2022-09-17T04:37:52;8.02;;;4.85;;
57105;SDS011;62662;56.788;23.942;2022-09-17T04:40:21;9.15;;;5.78;;
57105;SDS011;62662;56.788;23.942;2022-09-17T04:42:58;9.25;;;5.70;;
57105;SDS011;62662;56.788;23.942;2022-09-17T04:45:28;9.68;;;6.05;;
57105;SDS011;62662;56.788;23.942;2022-09-17T04:47:58;11.07;;;5.38;;
57105;SDS011;62662;56.788;23.942;2022-09-17T04:50:27;6.95;;;5.78;;
57105;SDS011;62662;56.788;23.942;2022-09-17T04:52:54;10.48;;;5.78;;
57105;SDS011;62662;56.788;23.942;2022-09-17T04:55:21;7.57;;;5.88;;
57105;SDS011;62662;56.788;23.942;2022-09-17T04:57:48;9.93;;;6.25;;
57105;SDS011;62662;56.788;23.942;2022-09-17T05:00:17;12.07;;;8.85;;
57105;SDS011;62662;56.788;23.942;2022-09-17T05:02:47;16.15;;;9.70;;
57105;SDS011;62662;56.788;23.942;2022-09-17T05:05:16;13.63;;;9.00;;
57105;SDS011;62662;56.788;23.942;2022-09-17T05:07:44;11.20;;;8.60;;
57105;SDS011;62662;56.788;23.942;2022-09-17T05:10:12;11.05;;;8.15;;
57105;SDS011;62662;56.788;23.942;2022-09-17T05:12:40;11.07;;;7.63;;
57105;SDS011;62662;56.788;23.942;2022-09-17T05:15:16;11.87;;;7.87;;
57105;SDS011;62662;56.788;23.942;2022-09-17T05:17:43;9.60;;;6.78;;
57105;SDS011;62662;56.788;23.942;2022-09-17T05:20:10;10.15;;;6.45;;
57105;SDS011;62662;56.788;23.942;2022-09-17T05:22:42;7.88;;;5.88;;
57105;SDS011;62662;56.788;23.942;2022-09-17T05:25:11;9.48;;;5.80;;
57105;SDS011;62662;56.788;23.942;2022-09-17T05:27:39;8.30;;;6.05;;
57105;SDS011;62662;56.788;23.942;2022-09-17T05:30:07;6.28;;;5.28;;
57105;SDS011;62662;56.788;23.942;2022-09-17T05:32:35;5.93;;;4.85;;
57105;SDS011;62662;56.788;23.942;2022-09-17T05:35:03;6.93;;;5.20;;
57105;SDS011;62662;56.788;23.942;2022-09-17T05:37:31;7.25;;;5.00;;
57105;SDS011;62662;56.788;23.942;2022-09-17T05:39:58;8.48;;;6.32;;
57105;SDS011;62662;56.788;23.942;2022-09-17T05:42:26;6.32;;;4.57;;
57105;SDS011;62662;56.788;23.942;2022-09-17T05:44:53;6.05;;;5.13;;
57105;SDS011;62662;56.788;23.942;2022-09-17T05:47:20;6.60;;;4.78;;
57105;SDS011;62662;56.788;23.942;2022-09-17T05:49:46;11.68;;;3.97;;
57105;SDS011;62662;56.788;23.942;2022-09-17T05:52:13;5.05;;;4.20;;
57105;SDS011;62662;56.788;23.942;2022-09-17T05:54:41;5.05;;;4.10;;
57105;SDS011;62662;56.788;23.942;2022-09-17T05:57:08;4.93;;;3.88;;
57105;SDS011;62662;56.788;23.942;2022-09-17T05:59:35;6.93;;;4.38;;
57105;SDS011;62662;56.788;23.942;2022-09-17T06:02:02;9.18;;;4.10;;
57105;SDS011;62662;56.788;23.942;2022-09-17T06:04:30;6.38;;;4.13;;
57105;SDS011;62662;56.788;23.942;2022-09-17T06:07:02;4.53;;;4.13;;
57105;SDS011;62662;56.788;23.942;2022-09-17T06:09:35;4.90;;;3.85;;
57105;SDS011;62662;56.788;23.942;2022-09-17T06:12:03;8.40;;;5.60;;
57105;SDS011;62662;56.788;23.942;2022-09-17T06:14:31;5.78;;;3.55;;
57105;SDS011;62662;56.788;23.942;2022-09-17T06:16:58;6.38;;;3.28;;
57105;SDS011;62662;56.788;23.942;2022-09-17T06:19:26;4.72;;;3.30;;
57105;SDS011;62662;56.788;23.942;2022-09-17T06:21:53;3.78;;;3.00;;
57105;SDS011;62662;56.788;23.942;2022-09-17T06:24:20;6.57;;;3.22;;
57105;SDS011;62662;56.788;23.942;2022-09-17T06:26:47;2.90;;;2.50;;
57105;SDS011;62662;56.788;23.942;2022-09-17T06:29:14;6.25;;;2.80;;
57105;SDS011;62662;56.788;23.942;2022-09-17T06:31:42;5.07;;;2.40;;
57105;SDS011;62662;56.788;23.942;2022-09-17T06:34:13;4.13;;;2.53;;
57105;SDS011;62662;56.788;23.942;2022-09-17T06:36:41;4.97;;;2.50;;
57105;SDS011;62662;56.788;23.942;2022-09-17T06:39:09;4.60;;;2.72;;
57105;SDS011;62662;56.788;23.942;2022-09-17T06:41:37;4.53;;;2.50;;
57105;SDS011;62662;56.788;23.942;2022-09-17T06:44:04;3.42;;;2.60;;
57105;SDS011;62662;56.788;23.942;2022-09-17T06:46:31;3.13;;;2.30;;
57105;SDS011;62662;56.788;23.942;2022-09-17T06:48:59;3.08;;;2.70;;
57105;SDS011;62662;56.788;23.942;2022-09-17T06:51:26;4.38;;;2.70;;
57105;SDS011;62662;56.788;23.942;2022-09-17T06:53:53;6.70;;;2.88;;
57105;SDS011;62662;56.788;23.942;2022-09-17T06:56:21;5.13;;;2.75;;
57105;SDS011;62662;56.788;23.942;2022-09-17T06:58:48;3.55;;;2.55;;
57105;SDS011;62662;56.788;23.942;2022-09-17T07:01:15;8.00;;;3.15;;
57105;SDS011;62662;56.788;23.942;2022-09-17T07:03:42;3.70;;;2.47;;
57105;SDS011;62662;56.788;23.942;2022-09-17T07:06:09;3.20;;;2.42;;
57105;SDS011;62662;56.788;23.942;2022-09-17T07:08:38;4.53;;;2.33;;
57105;SDS011;62662;56.788;23.942;2022-09-17T07:11:05;3.47;;;2.15;;
57105;SDS011;62662;56.788;23.942;2022-09-17T07:13:33;3.50;;;2.10;;
57105;SDS011;62662;56.788;23.942;2022-09-17T07:16:01;3.80;;;2.45;;
57105;SDS011;62662;56.788;23.942;2022-09-17T07:18:30;4.35;;;2.80;;
57105;SDS011;62662;56.788;23.942;2022-09-17T07:20:58;3.97;;;2.65;;
57105;SDS011;62662;56.788;23.942;2022-09-17T07:23:27;3.20;;;2.30;;
57105;SDS011;62662;56.788;23.942;2022-09-17T07:26:00;3.50;;;2.22;;
57105;SDS011;62662;56.788;23.942;2022-09-17T07:28:32;2.47;;;2.15;;
57105;SDS011;62662;56.788;23.942;2022-09-17T07:31:01;4.10;;;2.38;;
57105;SDS011;62662;56.788;23.942;2022-09-17T07:33:31;2.50;;;1.70;;
57105;SDS011;62662;56.788;23.942;2022-09-17T07:36:03;4.82;;;1.73;;
57105;SDS011;62662;56.788;23.942;2022-09-17T07:38:32;2.45;;;1.75;;
57105;SDS011;62662;56.788;23.942;2022-09-17T07:41:01;2.80;;;1.52;;
57105;SDS011;62662;56.788;23.942;2022-09-17T07:43:39;3.00;;;1.48;;
57105;SDS011;62662;56.788;23.942;2022-09-17T07:46:09;3.35;;;1.35;;
57105;SDS011;62662;56.788;23.942;2022-09-17T07:48:43;2.78;;;1.63;;
57105;SDS011;62662;56.788;23.942;2022-09-17T07:51:15;1.70;;;1.20;;
57105;SDS011;62662;56.788;23.942;2022-09-17T07:53:45;2.67;;;1.30;;
57105;SDS011;62662;56.788;23.942;2022-09-17T07:56:13;1.63;;;1.40;;
57105;SDS011;62662;56.788;23.942;2022-09-17T07:58:40;4.55;;;1.08;;
57105;SDS011;62662;56.788;23.942;2022-09-17T08:01:11;1.42;;;1.13;;
57105;SDS011;62662;56.788;23.942;2022-09-17T08:03:41;2.15;;;1.15;;
57105;SDS011;62662;56.788;23.942;2022-09-17T08:06:13;2.90;;;1.00;;
57105;SDS011;62662;56.788;23.942;2022-09-17T08:08:41;2.92;;;1.00;;
57105;SDS011;62662;56.788;23.942;2022-09-17T08:11:12;3.05;;;1.00;;
57105;SDS011;62662;56.788;23.942;2022-09-17T08:14:04;1.20;;;0.90;;
57105;SDS011;62662;56.788;23.942;2022-09-17T08:16:31;1.52;;;0.80;;
57105;SDS011;62662;56.788;23.942;2022-09-17T08:18:58;2.95;;;0.88;;
57105;SDS011;62662;56.788;23.942;2022-09-17T08:21:25;3.10;;;0.98;;
57105;SDS011;62662;56.788;23.942;2022-09-17T08:23:52;1.63;;;1.00;;
57105;SDS011;62662;56.788;23.942;2022-09-17T08:26:20;1.92;;;0.90;;
57105;SDS011;62662;56.788;23.942;2022-09-17T08:28:49;1.55;;;1.15;;
57105;SDS011;62662;56.788;23.942;2022-09-17T08:31:17;4.63;;;2.78;;
57105;SDS011;62662;56.788;23.942;2022-09-17T08:33:45;2.05;;;1.23;;
57105;SDS011;62662;56.788;23.942;2022-09-17T08:36:14;5.20;;;1.17;;
57105;SDS011;62662;56.788;23.942;2022-09-17T08:38:42;1.40;;;1.00;;
57105;SDS011;62662;56.788;23.942;2022-09-17T08:46:42;2.05;;;1.08;;
57105;SDS011;62662;56.788;23.942;2022-09-17T08:49:18;3.60;;;1.10;;
57105;SDS011;62662;56.788;23.942;2022-09-17T09:05:45;1.60;;;1.10;;
57105;SDS011;62662;56.788;23.942;2022-09-17T09:11:09;2.72;;;0.98;;
57105;SDS011;62662;56.788;23.942;2022-09-17T09:13:48;1.02;;;0.80;;
57105;SDS011;62662;56.788;23.942;2022-09-17T09:16:24;1.15;;;0.93;;
57105;SDS011;62662;56.788;23.942;2022-09-17T09:18:54;1.38;;;0.95;;
57105;SDS011;62662;56.788;23.942;2022-09-17T09:21:25;1.20;;;1.00;;
57105;SDS011;62662;56.788;23.942;2022-09-17T09:34:42;1.20;;;1.10;;
57105;SDS011;62662;56.788;23.942;2022-09-17T09:37:13;1.30;;;1.02;;
57105;SDS011;62662;56.788;23.942;2022-09-17T09:39:45;1.42;;;0.85;;
57105;SDS011;62662;56.788;23.942;2022-09-17T09:42:18;0.80;;;0.80;;
57105;SDS011;62662;56.788;23.942;2022-09-17T09:45:00;2.10;;;1.20;;
57105;SDS011;62662;56.788;23.942;2022-09-17T09:47:44;1.67;;;0.90;;
57105;SDS011;62662;56.788;23.942;2022-09-17T09:58:38;1.20;;;0.90;;
57105;SDS011;62662;56.788;23.942;2022-09-17T10:01:13;2.25;;;1.08;;
57105;SDS011;62662;56.788;23.942;2022-09-17T10:03:42;1.98;;;1.20;;
57105;SDS011;62662;56.788;23.942;2022-09-17T10:06:12;1.30;;;1.10;;
57105;SDS011;62662;56.788;23.942;2022-09-17T10:11:20;1.45;;;1.00;;
57105;SDS011;62662;56.788;23.942;2022-09-17T10:13:48;1.70;;;0.90;;
57105;SDS011;62662;56.788;23.942;2022-09-17T10:16:16;1.08;;;0.90;;
57105;SDS011;62662;56.788;23.942;2022-09-17T10:18:46;1.17;;;0.90;;
57105;SDS011;62662;56.788;23.942;2022-09-17T10:21:18;1.33;;;1.00;;
57105;SDS011;62662;56.788;23.942;2022-09-17T10:23:47;3.90;;;1.38;;
57105;SDS011;62662;56.788;23.942;2022-09-17T10:26:26;3.00;;;1.33;;
57105;SDS011;62662;56.788;23.942;2022-09-17T10:28:57;3.85;;;1.80;;
57105;SDS011;62662;56.788;23.942;2022-09-17T10:32:15;2.88;;;1.63;;
57105;SDS011;62662;56.788;23.942;2022-09-17T10:34:26;5.97;;;1.98;;
57105;SDS011;62662;56.788;23.942;2022-09-17T10:36:55;2.67;;;1.58;;
57105;SDS011;62662;56.788;23.942;2022-09-17T10:41:52;2.63;;;1.63;;
57105;SDS011;62662;56.788;23.942;2022-09-17T10:44:36;2.70;;;1.95;;
57105;SDS011;62662;56.788;23.942;2022-09-17T10:47:06;2.17;;;1.50;;
57105;SDS011;62662;56.788;23.942;2022-09-17T10:49:47;3.67;;;1.65;;
57105;SDS011;62662;56.788;23.942;2022-09-17T11:00:47;1.33;;;1.13;;
57105;SDS011;62662;56.788;23.942;2022-09-17T11:03:59;2.75;;;1.20;;
57105;SDS011;62662;56.788;23.942;2022-09-17T11:09:07;6.13;;;1.50;;
57105;SDS011;62662;56.788;23.942;2022-09-17T11:12:13;2.33;;;1.45;;
57105;SDS011;62662;56.788;23.942;2022-09-17T11:15:02;1.63;;;1.27;;
57105;SDS011;62662;56.788;23.942;2022-09-17T11:26:03;4.40;;;1.20;;
57105;SDS011;62662;56.788;23.942;2022-09-17T11:31:51;2.00;;;1.15;;
57105;SDS011;62662;56.788;23.942;2022-09-17T11:34:46;3.25;;;1.10;;
57105;SDS011;62662;56.788;23.942;2022-09-17T11:37:31;1.35;;;0.98;;
57105;SDS011;62662;56.788;23.942;2022-09-17T11:44:11;1.02;;;0.80;;
57105;SDS011;62662;56.788;23.942;2022-09-17T11:46:54;1.08;;;0.98;;
57105;SDS011;62662;56.788;23.942;2022-09-17T11:49:33;1.60;;;1.00;;
57105;SDS011;62662;56.788;23.942;2022-09-17T11:52:29;4.22;;;1.10;;
57105;SDS011;62662;56.788;23.942;2022-09-17T11:58:19;4.03;;;1.33;;
57105;SDS011;62662;56.788;23.942;2022-09-17T12:01:17;2.28;;;1.30;;
57105;SDS011;62662;56.788;23.942;2022-09-17T12:15:43;2.25;;;1.40;;
57105;SDS011;62662;56.788;23.942;2022-09-17T12:20:58;2.88;;;1.55;;
57105;SDS011;62662;56.788;23.942;2022-09-17T12:31:52;1.98;;;1.38;;
57105;SDS011;62662;56.788;23.942;2022-09-17T12:48:27;1.75;;;1.00;;
57105;SDS011;62662;56.788;23.942;2022-09-17T12:51:17;0.95;;;0.80;;
57105;SDS011;62662;56.788;23.942;2022-09-17T12:59:38;2.55;;;1.10;;
57105;SDS011;62662;56.788;23.942;2022-09-17T13:24:16;1.45;;;1.10;;
57105;SDS011;62662;56.788;23.942;2022-09-17T13:26:51;1.30;;;1.10;;
57105;SDS011;62662;56.788;23.942;2022-09-17T13:37:56;1.73;;;1.33;;
57105;SDS011;62662;56.788;23.942;2022-09-17T13:45:31;1.00;;;0.90;;
57105;SDS011;62662;56.788;23.942;2022-09-17T13:48:02;1.92;;;1.10;;
57105;SDS011;62662;56.788;23.942;2022-09-17T13:50:38;1.10;;;1.00;;
57105;SDS011;62662;56.788;23.942;2022-09-17T13:53:16;3.55;;;1.00;;
57105;SDS011;62662;56.788;23.942;2022-09-17T13:55:57;1.42;;;1.10;;
57105;SDS011;62662;56.788;23.942;2022-09-17T13:58:27;2.17;;;1.08;;
57105;SDS011;62662;56.788;23.942;2022-09-17T14:01:11;1.58;;;1.20;;
57105;SDS011;62662;56.788;23.942;2022-09-17T14:13:50;3.38;;;1.65;;
57105;SDS011;62662;56.788;23.942;2022-09-17T14:16:30;2.08;;;1.10;;
57105;SDS011;62662;56.788;23.942;2022-09-17T14:32:23;3.17;;;1.27;;
57105;SDS011;62662;56.788;23.942;2022-09-17T14:35:15;3.15;;;1.42;;
57105;SDS011;62662;56.788;23.942;2022-09-17T14:37:47;2.55;;;1.50;;
57105;SDS011;62662;56.788;23.942;2022-09-17T14:40:42;2.22;;;1.67;;
57105;SDS011;62662;56.788;23.942;2022-09-17T14:43:16;1.70;;;1.35;;
57105;SDS011;62662;56.788;23.942;2022-09-17T14:45:52;1.33;;;1.10;;
57105;SDS011;62662;56.788;23.942;2022-09-17T14:48:30;2.88;;;1.80;;
57105;SDS011;62662;56.788;23.942;2022-09-17T14:53:45;1.50;;;1.30;;
57105;SDS011;62662;56.788;23.942;2022-09-17T14:56:14;2.53;;;1.50;;
57105;SDS011;62662;56.788;23.942;2022-09-17T14:58:47;4.88;;;1.77;;
57105;SDS011;62662;56.788;23.942;2022-09-17T15:01:23;2.58;;;1.20;;
57105;SDS011;62662;56.788;23.942;2022-09-17T15:06:39;2.25;;;1.70;;
57105;SDS011;62662;56.788;23.942;2022-09-17T15:09:17;1.88;;;1.45;;
57105;SDS011;62662;56.788;23.942;2022-09-17T15:11:44;4.18;;;1.48;;
57105;SDS011;62662;56.788;23.942;2022-09-17T15:14:22;2.22;;;1.45;;
57105;SDS011;62662;56.788;23.942;2022-09-17T15:17:00;3.83;;;1.90;;
57105;SDS011;62662;56.788;23.942;2022-09-17T15:19:33;3.05;;;1.95;;
57105;SDS011;62662;56.788;23.942;2022-09-17T15:24:54;4.60;;;2.00;;
57105;SDS011;62662;56.788;23.942;2022-09-17T15:27:33;3.22;;;1.90;;
57105;SDS011;62662;56.788;23.942;2022-09-17T15:33:01;2.33;;;2.10;;
57105;SDS011;62662;56.788;23.942;2022-09-17T15:35:28;2.78;;;1.92;;
57105;SDS011;62662;56.788;23.942;2022-09-17T15:40:49;5.65;;;2.45;;
57105;SDS011;62662;56.788;23.942;2022-09-17T15:45:54;3.88;;;2.35;;
57105;SDS011;62662;56.788;23.942;2022-09-17T15:51:00;2.97;;;2.10;;
57105;SDS011;62662;56.788;23.942;2022-09-17T15:53:30;5.82;;;2.70;;
57105;SDS011;62662;56.788;23.942;2022-09-17T15:58:35;4.05;;;2.60;;
57105;SDS011;62662;56.788;23.942;2022-09-17T16:06:56;4.50;;;2.58;;
57105;SDS011;62662;56.788;23.942;2022-09-17T16:08:59;5.00;;;2.63;;
57105;SDS011;62662;56.788;23.942;2022-09-17T16:11:28;3.03;;;2.25;;
57105;SDS011;62662;56.788;23.942;2022-09-17T16:13:57;3.30;;;2.35;;
57105;SDS011;62662;56.788;23.942;2022-09-17T16:18:53;2.70;;;1.70;;
57105;SDS011;62662;56.788;23.942;2022-09-17T16:21:20;3.25;;;2.25;;
57105;SDS011;62662;56.788;23.942;2022-09-17T16:23:48;3.90;;;2.55;;
57105;SDS011;62662;56.788;23.942;2022-09-17T16:26:18;2.45;;;2.08;;
57105;SDS011;62662;56.788;23.942;2022-09-17T16:28:49;3.50;;;2.50;;
57105;SDS011;62662;56.788;23.942;2022-09-17T16:31:19;4.07;;;2.20;;
57105;SDS011;62662;56.788;23.942;2022-09-17T16:33:46;2.67;;;2.05;;
57105;SDS011;62662;56.788;23.942;2022-09-17T16:36:16;4.00;;;2.47;;
57105;SDS011;62662;56.788;23.942;2022-09-17T16:38:44;3.83;;;2.40;;
57105;SDS011;62662;56.788;23.942;2022-09-17T16:41:10;3.70;;;2.45;;
57105;SDS011;62662;56.788;23.942;2022-09-17T16:43:38;4.32;;;2.65;;
57105;SDS011;62662;56.788;23.942;2022-09-17T16:46:06;4.25;;;2.08;;
57105;SDS011;62662;56.788;23.942;2022-09-17T16:48:36;3.47;;;2.30;;
57105;SDS011;62662;56.788;23.942;2022-09-17T16:51:07;4.50;;;2.88;;
57105;SDS011;62662;56.788;23.942;2022-09-17T16:53:36;4.47;;;2.78;;
57105;SDS011;62662;56.788;23.942;2022-09-17T16:56:07;4.15;;;2.97;;
57105;SDS011;62662;56.788;23.942;2022-09-17T16:58:35;2.58;;;2.38;;
57105;SDS011;62662;56.788;23.942;2022-09-17T17:01:06;3.03;;;2.63;;
57105;SDS011;62662;56.788;23.942;2022-09-17T17:03:33;5.53;;;2.63;;
57105;SDS011;62662;56.788;23.942;2022-09-17T17:06:00;6.45;;;2.88;;
57105;SDS011;62662;56.788;23.942;2022-09-17T17:08:32;3.75;;;2.65;;
57105;SDS011;62662;56.788;23.942;2022-09-17T17:11:00;5.93;;;3.03;;
57105;SDS011;62662;56.788;23.942;2022-09-17T17:13:27;3.50;;;3.03;;
57105;SDS011;62662;56.788;23.942;2022-09-17T17:15:54;3.10;;;2.40;;
57105;SDS011;62662;56.788;23.942;2022-09-17T17:18:23;4.47;;;3.03;;
57105;SDS011;62662;56.788;23.942;2022-09-17T17:20:53;3.22;;;2.50;;
57105;SDS011;62662;56.788;23.942;2022-09-17T17:23:20;9.00;;;3.42;;
57105;SDS011;62662;56.788;23.942;2022-09-17T17:25:47;6.88;;;3.60;;
57105;SDS011;62662;56.788;23.942;2022-09-17T17:28:15;4.43;;;2.95;;
57105;SDS011;62662;56.788;23.942;2022-09-17T17:30:45;7.95;;;3.35;;
57105;SDS011;62662;56.788;23.942;2022-09-17T17:33:13;4.60;;;3.28;;
57105;SDS011;62662;56.788;23.942;2022-09-17T17:35:41;5.63;;;3.17;;
57105;SDS011;62662;56.788;23.942;2022-09-17T17:38:08;4.90;;;3.40;;
57105;SDS011;62662;56.788;23.942;2022-09-17T17:40:35;5.15;;;3.20;;
57105;SDS011;62662;56.788;23.942;2022-09-17T17:43:02;4.03;;;3.08;;
57105;SDS011;62662;56.788;23.942;2022-09-17T17:45:29;3.88;;;3.20;;
57105;SDS011;62662;56.788;23.942;2022-09-17T17:47:56;4.07;;;3.60;;
57105;SDS011;62662;56.788;23.942;2022-09-17T17:50:23;6.20;;;3.60;;
57105;SDS011;62662;56.788;23.942;2022-09-17T17:52:52;6.22;;;3.72;;
57105;SDS011;62662;56.788;23.942;2022-09-17T17:55:20;5.60;;;4.03;;
57105;SDS011;62662;56.788;23.942;2022-09-17T17:57:47;4.25;;;3.45;;
57105;SDS011;62662;56.788;23.942;2022-09-17T18:00:26;6.18;;;3.67;;
57105;SDS011;62662;56.788;23.942;2022-09-17T18:02:53;5.40;;;3.67;;
57105;SDS011;62662;56.788;23.942;2022-09-17T18:05:20;6.72;;;3.85;;
57105;SDS011;62662;56.788;23.942;2022-09-17T18:07:47;4.70;;;3.80;;
57105;SDS011;62662;56.788;23.942;2022-09-17T18:10:15;6.45;;;4.07;;
57105;SDS011;62662;56.788;23.942;2022-09-17T18:12:42;6.03;;;3.90;;
57105;SDS011;62662;56.788;23.942;2022-09-17T18:15:15;6.53;;;4.43;;
57105;SDS011;62662;56.788;23.942;2022-09-17T18:17:43;6.00;;;4.28;;
57105;SDS011;62662;56.788;23.942;2022-09-17T18:20:13;6.80;;;3.92;;
57105;SDS011;62662;56.788;23.942;2022-09-17T18:22:40;5.00;;;3.50;;
57105;SDS011;62662;56.788;23.942;2022-09-17T18:25:08;5.40;;;3.92;;
57105;SDS011;62662;56.788;23.942;2022-09-17T18:27:35;5.68;;;4.05;;
57105;SDS011;62662;56.788;23.942;2022-09-17T18:30:02;8.27;;;3.80;;
57105;SDS011;62662;56.788;23.942;2022-09-17T18:32:29;4.90;;;3.28;;
57105;SDS011;62662;56.788;23.942;2022-09-17T18:34:56;6.80;;;3.90;;
57105;SDS011;62662;56.788;23.942;2022-09-17T18:37:23;7.05;;;3.92;;
57105;SDS011;62662;56.788;23.942;2022-09-17T18:39:51;8.95;;;3.60;;
57105;SDS011;62662;56.788;23.942;2022-09-17T18:42:24;8.88;;;4.25;;
57105;SDS011;62662;56.788;23.942;2022-09-17T18:44:51;6.20;;;4.10;;
57105;SDS011;62662;56.788;23.942;2022-09-17T18:47:18;7.32;;;3.85;;
57105;SDS011;62662;56.788;23.942;2022-09-17T18:49:45;6.85;;;3.40;;
57105;SDS011;62662;56.788;23.942;2022-09-17T18:52:12;6.03;;;3.22;;
57105;SDS011;62662;56.788;23.942;2022-09-17T18:54:39;7.18;;;3.80;;
57105;SDS011;62662;56.788;23.942;2022-09-17T18:57:06;5.90;;;3.95;;
57105;SDS011;62662;56.788;23.942;2022-09-17T18:59:33;7.18;;;3.38;;
57105;SDS011;62662;56.788;23.942;2022-09-17T19:02:00;4.70;;;3.47;;
57105;SDS011;62662;56.788;23.942;2022-09-17T19:04:28;4.28;;;3.60;;
57105;SDS011;62662;56.788;23.942;2022-09-17T19:06:55;6.43;;;3.85;;
57105;SDS011;62662;56.788;23.942;2022-09-17T19:09:22;4.68;;;3.28;;
57105;SDS011;62662;56.788;23.942;2022-09-17T19:11:50;7.50;;;3.72;;
57105;SDS011;62662;56.788;23.942;2022-09-17T19:14:17;6.38;;;3.67;;
57105;SDS011;62662;56.788;23.942;2022-09-17T19:16:43;6.05;;;3.70;;
57105;SDS011;62662;56.788;23.942;2022-09-17T19:19:12;5.32;;;3.72;;